createdAt,value
2022-08-17T00:00:12.806Z,100323.84
2022-08-17T00:02:59.697Z,100314.63
2022-08-17T00:05:29.175Z,100309.38
2022-08-17T00:07:56.944Z,100309.81
2022-08-17T00:10:25.176Z,100298.25
2022-08-17T00:12:52.749Z,100297.88
2022-08-17T00:15:21.615Z,100300.69
2022-08-17T00:17:50.689Z,100303.50
2022-08-17T00:20:18.973Z,100289.06
2022-08-17T00:22:50.644Z,100298.25
2022-08-17T00:25:20.003Z,100301.41
2022-08-17T00:27:47.740Z,100306.66
2022-08-17T00:33:23.146Z,100302.63
2022-08-17T00:35:34.168Z,100300.66
2022-08-17T00:38:01.673Z,100293.78
2022-08-17T00:40:44.563Z,100294.59
2022-08-17T00:43:19.800Z,100292.22
2022-08-17T00:45:47.609Z,100292.19
2022-08-17T00:48:29.330Z,100271.44
2022-08-17T00:51:11.777Z,100276.97
2022-08-17T00:53:41.946Z,100276.16
2022-08-17T00:56:11.192Z,100278.22
2022-08-17T00:58:38.595Z,100277.38
2022-08-17T01:01:07.870Z,100286.63
2022-08-17T01:03:36.028Z,100292.63
2022-08-17T01:06:04.777Z,100299.41
2022-08-17T01:08:33.827Z,100299.81
2022-08-17T01:11:02.525Z,100292.97
2022-08-17T01:13:40.774Z,100290.16
2022-08-17T01:16:22.604Z,100284.94
2022-08-17T01:18:54.279Z,100293.38
2022-08-17T01:21:47.672Z,100292.22
2022-08-17T01:24:15.811Z,100290.97
2022-08-17T01:26:43.604Z,100290.56
2022-08-17T01:29:11.540Z,100289.38
2022-08-17T01:31:52.815Z,100286.97
2022-08-17T01:34:20.756Z,100293.00
2022-08-17T01:36:49.587Z,100287.38
2022-08-17T01:39:37.253Z,100297.81
2022-08-17T01:42:24.759Z,100286.59
2022-08-17T01:44:58.967Z,100295.38
2022-08-17T01:47:26.283Z,100297.34
2022-08-17T01:49:53.805Z,100299.34
2022-08-17T01:52:22.026Z,100303.78
2022-08-17T01:54:51.491Z,100304.53
2022-08-17T01:57:18.838Z,100297.41
2022-08-17T01:59:46.125Z,100294.59
2022-08-17T02:02:13.335Z,100303.78
2022-08-17T02:04:58.773Z,100306.19
2022-08-17T02:07:27.008Z,100308.16
2022-08-17T02:09:56.333Z,100306.16
2022-08-17T02:12:37.802Z,100313.63
2022-08-17T02:15:10.226Z,100315.28
2022-08-17T02:17:37.527Z,100308.50
2022-08-17T02:20:05.384Z,100315.34
2022-08-17T02:22:32.746Z,100312.91
2022-08-17T02:25:02.336Z,100311.72
2022-08-17T02:27:29.903Z,100314.50
2022-08-17T02:29:57.572Z,100308.75
2022-08-17T02:32:27.940Z,100310.03
2022-08-17T02:34:57.464Z,100308.78
2022-08-17T02:37:25.757Z,100323.88
2022-08-17T02:39:53.223Z,100319.88
2022-08-17T02:42:33.834Z,100322.28
2022-08-17T02:45:02.333Z,100324.31
2022-08-17T02:47:29.842Z,100322.53
2022-08-17T02:49:57.449Z,100326.53
2022-08-17T02:52:43.291Z,100334.13
2022-08-17T02:55:19.022Z,100330.34
2022-08-17T02:57:46.653Z,100326.69
2022-08-17T03:00:21.281Z,100327.22
2022-08-17T03:02:49.339Z,100319.22
2022-08-17T03:05:18.951Z,100313.56
2022-08-17T03:07:46.251Z,100303.56
2022-08-17T03:10:14.561Z,100298.84
2022-08-17T03:12:43.303Z,100291.28
2022-08-17T03:15:14.020Z,100292.91
2022-08-17T03:17:41.517Z,100296.50
2022-08-17T03:20:09.334Z,100288.53
2022-08-17T03:22:42.907Z,100292.56
2022-08-17T03:25:24.104Z,100287.31
2022-08-17T03:27:51.780Z,100277.63
2022-08-17T03:30:19.157Z,100274.94
2022-08-17T03:32:50.597Z,100281.44
2022-08-17T03:35:20.939Z,100273.78
2022-08-17T03:37:48.303Z,100276.59
2022-08-17T03:40:41.811Z,100277.00
2022-08-17T03:43:15.469Z,100280.22
2022-08-17T03:46:01.913Z,100277.41
2022-08-17T03:48:47.814Z,100280.63
2022-08-17T03:51:40.860Z,100271.78
2022-08-17T03:54:27.677Z,100277.41
2022-08-17T03:57:06.357Z,100289.78
2022-08-17T03:59:34.474Z,100294.16
2022-08-17T04:02:08.995Z,100305.84
2022-08-17T04:04:36.831Z,100305.06
2022-08-17T04:07:04.762Z,100313.44
2022-08-17T04:09:32.035Z,100311.91
2022-08-17T04:12:01.215Z,100314.72
2022-08-17T04:14:45.995Z,100321.44
2022-08-17T04:17:24.719Z,100325.00
2022-08-17T04:19:52.487Z,100319.00
2022-08-17T04:22:33.379Z,100325.41
2022-08-17T04:25:21.607Z,100315.03
2022-08-17T04:27:48.929Z,100321.03
2022-08-17T04:30:16.333Z,100323.03
2022-08-17T04:33:05.849Z,100314.63
2022-08-17T04:35:42.923Z,100326.25
2022-08-17T04:38:16.229Z,100325.75
2022-08-17T04:41:02.625Z,100315.75
2022-08-17T04:43:32.020Z,100310.13
2022-08-17T04:46:05.692Z,100310.59
2022-08-17T04:48:45.785Z,100310.59
2022-08-17T04:51:16.434Z,100312.22
2022-08-17T04:53:46.587Z,100306.16
2022-08-17T04:56:23.233Z,100309.72
2022-08-17T04:58:52.377Z,100299.34
2022-08-17T05:01:23.739Z,100289.72
2022-08-17T05:04:18.392Z,100277.75
2022-08-17T05:06:49.632Z,100275.34
2022-08-17T05:09:17.867Z,100285.31
2022-08-17T05:11:46.033Z,100283.28
2022-08-17T05:14:14.509Z,100284.97
2022-08-17T05:16:41.766Z,100301.00
2022-08-17T05:19:09.028Z,100295.81
2022-08-17T05:21:36.429Z,100298.94
2022-08-17T05:24:06.023Z,100294.50
2022-08-17T05:26:44.905Z,100291.31
2022-08-17T05:29:12.450Z,100285.28
2022-08-17T05:31:39.712Z,100280.84
2022-08-17T05:34:07.390Z,100282.69
2022-08-17T05:36:41.592Z,100285.22
2022-08-17T05:39:15.974Z,100301.25
2022-08-17T05:41:46.597Z,100294.88
2022-08-17T05:44:14.070Z,100289.22
2022-08-17T05:46:44.080Z,100293.91
2022-08-17T05:49:12.276Z,100287.66
2022-08-17T05:51:39.653Z,100284.44
2022-08-17T05:54:19.141Z,100269.22
2022-08-17T05:57:10.948Z,100273.94
2022-08-17T05:59:52.089Z,100272.34
2022-08-17T06:02:47.035Z,100266.47
2022-08-17T06:05:25.881Z,100275.31
2022-08-17T06:08:06.890Z,100281.38
2022-08-17T06:10:34.080Z,100283.81
2022-08-17T06:13:14.526Z,100285.41
2022-08-17T06:15:41.798Z,100284.66
2022-08-17T06:18:11.607Z,100293.06
2022-08-17T06:21:13.797Z,100301.88
2022-08-17T06:23:45.066Z,100304.28
2022-08-17T06:26:20.613Z,100319.09
2022-08-17T06:28:55.571Z,100316.31
2022-08-17T06:31:28.036Z,100322.34
2022-08-17T06:34:00.867Z,100338.38
2022-08-17T06:36:40.471Z,100341.56
2022-08-17T06:39:29.631Z,100344.38
2022-08-17T06:42:54.882Z,100344.78
2022-08-17T06:45:18.243Z,100339.56
2022-08-17T06:48:00.860Z,100333.16
2022-08-17T06:50:38.271Z,100341.56
2022-08-17T06:53:11.170Z,100344.75
2022-08-17T06:56:12.186Z,100353.59
2022-08-17T06:58:40.967Z,100352.41
2022-08-17T07:01:10.426Z,100351.16
2022-08-17T07:03:41.731Z,100348.38
2022-08-17T07:06:18.613Z,100355.59
2022-08-17T07:08:59.003Z,100355.19
2022-08-17T07:11:27.510Z,100354.34
2022-08-17T07:14:06.137Z,100358.81
2022-08-17T07:16:47.142Z,100364.03
2022-08-17T07:19:17.301Z,100373.22
2022-08-17T07:22:02.662Z,100381.22
2022-08-17T07:24:39.256Z,100391.69
2022-08-17T07:27:12.687Z,100401.31
2022-08-17T07:30:06.770Z,100410.94
2022-08-17T07:32:38.165Z,100409.38
2022-08-17T07:35:16.493Z,100420.97
2022-08-17T07:37:50.927Z,100427.41
2022-08-17T07:40:31.266Z,100422.97
2022-08-17T07:43:23.790Z,100422.97
2022-08-17T07:46:15.937Z,100422.56
2022-08-17T07:48:46.464Z,100426.16
2022-08-17T07:51:26.411Z,100424.13
2022-08-17T07:54:13.175Z,100426.53
2022-08-17T07:56:56.585Z,100418.88
2022-08-17T07:59:35.747Z,100426.94
2022-08-17T08:02:31.087Z,100434.31
2022-08-17T08:05:14.975Z,100438.50
2022-08-17T08:08:01.425Z,100445.78
2022-08-17T08:10:36.264Z,100441.41
2022-08-17T08:13:23.191Z,100445.81
2022-08-17T08:15:54.595Z,100465.53
2022-08-17T08:18:54.368Z,100468.25
2022-08-17T08:21:46.434Z,100462.69
2022-08-17T08:24:34.794Z,100469.09
2022-08-17T08:27:08.136Z,100478.25
2022-08-17T08:30:00.948Z,100468.66
2022-08-17T08:32:50.429Z,100467.06
2022-08-17T08:35:37.246Z,100462.72
2022-08-17T08:38:28.264Z,100459.09
2022-08-17T08:41:17.810Z,100455.47
2022-08-17T08:44:19.113Z,100453.47
2022-08-17T08:47:35.571Z,100464.31
2022-08-17T08:50:34.114Z,100471.91
2022-08-17T08:53:39.686Z,100475.53
2022-08-17T08:56:12.452Z,100469.09
2022-08-17T08:58:52.600Z,100466.72
2022-08-17T09:01:40.233Z,100475.53
2022-08-17T09:04:25.404Z,100470.34
2022-08-17T09:07:24.220Z,100473.13
2022-08-17T09:10:11.127Z,100461.50
2022-08-17T09:12:50.560Z,100466.31
2022-08-17T09:15:22.628Z,100471.94
2022-08-17T09:18:14.703Z,100475.50
2022-08-17T09:20:50.319Z,100467.47
2022-08-17T09:23:42.355Z,100476.69
2022-08-17T09:26:14.554Z,100473.91
2022-08-17T09:28:45.040Z,100466.72
2022-08-17T09:31:18.157Z,100461.50
2022-08-17T09:33:47.965Z,100461.91
2022-08-17T09:36:25.747Z,100458.69
2022-08-17T09:39:00.162Z,100458.28
2022-08-17T09:41:48.878Z,100449.84
2022-08-17T09:44:27.290Z,100453.06
2022-08-17T09:46:59.968Z,100455.88
2022-08-17T09:49:27.133Z,100457.88
2022-08-17T09:51:58.883Z,100463.09
2022-08-17T09:54:39.268Z,100483.56
2022-08-17T09:57:29.946Z,100495.59
2022-08-17T10:00:15.982Z,100492.81
2022-08-17T10:03:16.142Z,100501.22
2022-08-17T10:05:57.158Z,100508.38
2022-08-17T10:08:32.376Z,100505.97
2022-08-17T10:11:33.462Z,100509.66
2022-08-17T10:14:36.869Z,100505.53
2022-08-17T10:17:23.040Z,100510.41
2022-08-17T10:19:50.305Z,100506.84
2022-08-17T10:22:53.030Z,100506.41
2022-08-17T10:25:53.941Z,100503.22
2022-08-17T10:28:29.386Z,100509.25
2022-08-17T10:31:30.763Z,100510.44
2022-08-17T10:33:54.178Z,100504.03
2022-08-17T10:36:55.052Z,100497.59
2022-08-17T10:39:31.336Z,100496.72
2022-08-17T10:42:04.357Z,100491.50
2022-08-17T10:44:42.348Z,100502.34
2022-08-17T10:47:14.513Z,100511.63
2022-08-17T10:49:49.714Z,100510.44
2022-08-17T10:52:20.083Z,100509.25
2022-08-17T10:54:50.394Z,100517.69
2022-08-17T10:57:31.680Z,100513.66
2022-08-17T10:59:59.657Z,100510.06
2022-08-17T11:02:31.483Z,100509.25
2022-08-17T11:05:16.999Z,100506.84
2022-08-17T11:08:05.330Z,100496.78
2022-08-17T11:10:58.340Z,100478.34
2022-08-17T11:13:31.412Z,100477.91
2022-08-17T11:16:27.695Z,100474.69
2022-08-17T11:19:26.396Z,100481.13
2022-08-17T11:22:23.010Z,100494.38
2022-08-17T11:24:52.677Z,100493.19
2022-08-17T11:27:27.081Z,100497.59
2022-08-17T11:30:20.655Z,100500.38
2022-08-17T11:32:55.815Z,100499.81
2022-08-17T11:35:24.387Z,100500.94
2022-08-17T11:38:05.024Z,100497.75
2022-08-17T11:40:46.416Z,100506.94
2022-08-17T11:43:21.358Z,100504.50
2022-08-17T11:45:56.081Z,100505.03
2022-08-17T11:49:01.473Z,100496.56
2022-08-17T11:51:58.369Z,100491.75
2022-08-17T11:54:36.598Z,100493.16
2022-08-17T11:57:25.967Z,100492.41
2022-08-17T11:59:55.342Z,100497.75
2022-08-17T12:02:31.702Z,100496.22
2022-08-17T12:05:02.597Z,100502.38
2022-08-17T12:07:32.665Z,100508.19
2022-08-17T12:10:00.552Z,100506.88
2022-08-17T12:12:33.019Z,100507.56
2022-08-17T12:15:10.930Z,100510.69
2022-08-17T12:17:52.057Z,100507.34
2022-08-17T12:20:42.314Z,100507.84
2022-08-17T12:23:11.063Z,100516.59
2022-08-17T12:26:10.195Z,100519.34
2022-08-17T12:28:39.279Z,100521.16
2022-08-17T12:31:11.594Z,100517.50
2022-08-17T12:33:44.138Z,100518.31
2022-08-17T12:36:15.125Z,100515.75
2022-08-17T12:38:51.229Z,100510.34
2022-08-17T12:41:30.916Z,100516.53
2022-08-17T12:44:03.872Z,100512.28
2022-08-17T12:46:46.721Z,100516.75
2022-08-17T12:49:15.265Z,100513.28
2022-08-17T12:51:46.841Z,100499.34
2022-08-17T12:54:28.529Z,100488.78
2022-08-17T12:56:56.112Z,100487.91
2022-08-17T12:59:30.451Z,100497.38
2022-08-17T13:01:57.984Z,100490.03
2022-08-17T13:04:26.587Z,100492.13
2022-08-17T13:06:59.925Z,100489.81
2022-08-17T13:09:36.029Z,100489.97
2022-08-17T13:12:08.485Z,100482.47
2022-08-17T13:14:36.350Z,100477.06
2022-08-17T13:17:08.552Z,100472.03
2022-08-17T13:19:48.507Z,100477.09
2022-08-17T13:22:15.837Z,100474.28
2022-08-17T13:24:55.060Z,100474.09
2022-08-17T13:27:24.551Z,100466.50
2022-08-17T13:29:58.004Z,100463.47
2022-08-17T13:32:36.100Z,100463.63
2022-08-17T13:35:32.386Z,100450.59
2022-08-17T13:38:09.907Z,100438.47
2022-08-17T13:40:41.652Z,100441.81
2022-08-17T13:43:10.307Z,100447.94
2022-08-17T13:45:45.469Z,100443.88
2022-08-17T13:48:32.717Z,100449.53
2022-08-17T13:51:00.007Z,100442.72
2022-08-17T13:53:50.589Z,100447.09
2022-08-17T13:56:38.746Z,100437.53
2022-08-17T13:59:16.947Z,100438.34
2022-08-17T14:02:05.724Z,100439.00
2022-08-17T14:04:33.956Z,100431.75
2022-08-17T14:07:11.500Z,100427.59
2022-08-17T14:09:47.953Z,100416.13
2022-08-17T14:12:17.682Z,100404.00
2022-08-17T14:14:45.267Z,100388.75
2022-08-17T14:17:12.798Z,100392.91
2022-08-17T14:19:40.085Z,100387.00
2022-08-17T14:22:11.597Z,100388.84
2022-08-17T14:24:45.013Z,100392.09
2022-08-17T14:27:12.549Z,100392.53
2022-08-17T14:29:41.227Z,100394.22
2022-08-17T14:32:17.984Z,100390.63
2022-08-17T14:34:46.161Z,100402.56
2022-08-17T14:37:13.529Z,100390.63
2022-08-17T14:39:41.007Z,100402.81
2022-08-17T14:42:09.432Z,100402.34
2022-08-17T14:44:38.241Z,100406.47
2022-08-17T14:47:07.301Z,100407.06
2022-08-17T14:49:34.508Z,100405.66
2022-08-17T14:52:02.167Z,100402.97
2022-08-17T14:54:34.069Z,100403.03
2022-08-17T14:57:25.154Z,100402.78
2022-08-17T14:59:54.942Z,100399.31
2022-08-17T15:02:30.074Z,100395.00
2022-08-17T15:05:00.092Z,100404.56
2022-08-17T15:07:30.743Z,100406.63
2022-08-17T15:10:02.083Z,100409.72
2022-08-17T15:12:33.775Z,100410.38
2022-08-17T15:15:04.813Z,100417.41
2022-08-17T15:17:44.429Z,100415.03
2022-08-17T15:20:19.271Z,100428.13
2022-08-17T15:22:49.842Z,100436.06
2022-08-17T15:25:19.184Z,100441.47
2022-08-17T15:27:47.422Z,100439.53
2022-08-17T15:30:15.752Z,100431.78
2022-08-17T15:32:46.875Z,100425.84
2022-08-17T15:35:29.447Z,100422.47
2022-08-17T15:38:06.159Z,100431.78
2022-08-17T15:40:37.846Z,100429.47
2022-08-17T15:43:11.465Z,100434.75
2022-08-17T15:45:39.723Z,100437.09
2022-08-17T15:48:07.385Z,100447.91
2022-08-17T15:50:35.430Z,100449.81
2022-08-17T15:53:04.762Z,100442.81
2022-08-17T15:55:33.398Z,100442.34
2022-08-17T15:58:01.113Z,100431.38
2022-08-17T16:00:29.332Z,100435.97
2022-08-17T16:03:46.107Z,100442.28
2022-08-17T16:05:47.277Z,100439.81
2022-08-17T16:08:20.110Z,100433.19
2022-08-17T16:10:49.563Z,100444.34
2022-08-17T16:13:18.282Z,100442.19
2022-08-17T16:15:54.816Z,100442.31
2022-08-17T16:18:27.404Z,100445.75
2022-08-17T16:20:55.030Z,100440.34
2022-08-17T16:23:22.420Z,100454.09
2022-08-17T16:25:53.945Z,100442.19
2022-08-17T16:28:25.734Z,100445.00
2022-08-17T16:31:07.924Z,100443.84
2022-08-17T16:33:37.446Z,100430.63
2022-08-17T16:36:07.215Z,100425.34
2022-08-17T16:38:35.825Z,100431.53
2022-08-17T16:41:04.816Z,100428.31
2022-08-17T16:43:34.022Z,100435.72
2022-08-17T16:46:01.571Z,100442.47
2022-08-17T16:48:29.736Z,100434.06
2022-08-17T16:51:04.220Z,100442.88
2022-08-17T16:53:31.904Z,100439.31
2022-08-17T16:55:59.109Z,100447.47
2022-08-17T16:58:26.504Z,100440.97
2022-08-17T17:00:54.365Z,100441.72
2022-08-17T17:03:25.278Z,100439.16
2022-08-17T17:06:32.381Z,100433.59
2022-08-17T17:09:03.710Z,100439.97
2022-08-17T17:11:47.186Z,100443.53
2022-08-17T17:14:18.216Z,100456.97
2022-08-17T17:16:53.025Z,100474.50
2022-08-17T17:19:35.325Z,100478.38
2022-08-17T17:22:14.080Z,100479.28
2022-08-17T17:25:03.212Z,100488.75
2022-08-17T17:27:38.348Z,100498.22
2022-08-17T17:30:15.735Z,100512.50
2022-08-17T17:32:52.749Z,100513.59
2022-08-17T17:35:25.243Z,100512.44
2022-08-17T17:37:53.287Z,100518.13
2022-08-17T17:40:37.639Z,100518.31
2022-08-17T17:43:36.887Z,100514.16
2022-08-17T17:46:27.062Z,100515.09
2022-08-17T17:48:55.324Z,100516.94
2022-08-17T17:52:15.630Z,100530.25
2022-08-17T17:54:58.899Z,100536.88
2022-08-17T17:58:04.305Z,100538.88
2022-08-17T18:00:44.343Z,100537.63
2022-08-17T18:03:23.114Z,100540.91
2022-08-17T18:06:00.661Z,100546.50
2022-08-17T18:08:34.752Z,100541.56
2022-08-17T18:11:11.448Z,100555.53
2022-08-17T18:14:14.431Z,100555.94
2022-08-17T18:16:42.964Z,100560.66
2022-08-17T18:19:15.494Z,100565.06
2022-08-17T18:21:46.456Z,100571.81
2022-08-17T18:24:13.903Z,100584.72
2022-08-17T18:26:44.680Z,100584.34
2022-08-17T18:29:26.265Z,100592.66
2022-08-17T18:32:15.231Z,100607.13
2022-08-17T18:34:47.701Z,100612.50
2022-08-17T18:37:34.329Z,100605.28
2022-08-17T18:40:32.435Z,100602.84
2022-08-17T18:43:24.569Z,100606.06
2022-08-17T18:45:55.157Z,100602.22
2022-08-17T18:48:24.897Z,100603.34
2022-08-17T18:50:54.457Z,100604.59
2022-08-17T18:53:33.139Z,100613.53
2022-08-17T18:56:21.955Z,100602.69
2022-08-17T18:59:12.448Z,100596.25
2022-08-17T19:02:03.205Z,100601.47
2022-08-17T19:04:41.697Z,100599.09
2022-08-17T19:07:29.116Z,100593.47
2022-08-17T19:10:13.838Z,100590.63
2022-08-17T19:12:49.396Z,100585.81
2022-08-17T19:15:22.888Z,100591.84
2022-08-17T19:18:00.366Z,100585.00
2022-08-17T19:20:34.928Z,100592.31
2022-08-17T19:23:10.972Z,100589.94
2022-08-17T19:25:43.338Z,100585.88
2022-08-17T19:28:26.008Z,100584.31
2022-08-17T19:31:07.705Z,100570.22
2022-08-17T19:33:35.034Z,100576.22
2022-08-17T19:36:24.194Z,100574.16
2022-08-17T19:39:10.433Z,100575.38
2022-08-17T19:42:03.816Z,100586.63
2022-08-17T19:44:56.666Z,100585.00
2022-08-17T19:47:57.057Z,100601.56
2022-08-17T19:50:38.393Z,100615.63
2022-08-17T19:54:01.645Z,100612.41
2022-08-17T19:56:31.682Z,100616.41
2022-08-17T19:59:04.704Z,100616.41
2022-08-17T20:01:39.945Z,100624.47
2022-08-17T20:04:32.630Z,100629.31
2022-08-17T20:07:04.633Z,100618.47
2022-08-17T20:09:37.790Z,100622.06
2022-08-17T20:12:09.855Z,100617.25
2022-08-17T20:14:53.620Z,100624.06
2022-08-17T20:17:40.663Z,100620.88
2022-08-17T20:20:46.771Z,100616.84
2022-08-17T20:23:23.384Z,100612.03
2022-08-17T20:26:05.176Z,100616.00
2022-08-17T20:28:38.911Z,100617.63
2022-08-17T20:31:41.817Z,100616.78
2022-08-17T20:34:34.899Z,100611.19
2022-08-17T20:37:10.517Z,100607.56
2022-08-17T20:39:45.088Z,100610.44
2022-08-17T20:42:15.388Z,100617.25
2022-08-17T20:44:43.193Z,100626.47
2022-08-17T20:47:17.926Z,100623.28
2022-08-17T20:49:47.967Z,100628.09
2022-08-17T20:52:18.621Z,100633.31
2022-08-17T20:54:54.687Z,100642.09
2022-08-17T20:57:37.462Z,100631.81
2022-08-17T21:00:39.742Z,100643.88
2022-08-17T21:03:26.638Z,100645.00
2022-08-17T21:06:17.622Z,100635.41
2022-08-17T21:08:53.926Z,100639.97
2022-08-17T21:11:57.211Z,100639.56
2022-08-17T21:14:40.241Z,100635.22
2022-08-17T21:17:56.253Z,100630.44
2022-08-17T21:20:27.713Z,100632.41
2022-08-17T21:23:12.238Z,100638.00
2022-08-17T21:26:04.805Z,100631.16
2022-08-17T21:28:59.973Z,100630.69
2022-08-17T21:31:32.065Z,100639.56
2022-08-17T21:34:25.416Z,100644.41
2022-08-17T21:36:52.957Z,100648.41
2022-08-17T21:39:30.507Z,100648.78
2022-08-17T21:42:00.519Z,100638.31
2022-08-17T21:44:34.915Z,100625.84
2022-08-17T21:47:32.267Z,100635.41
2022-08-17T21:50:23.580Z,100643.91
2022-08-17T21:52:54.071Z,100653.91
2022-08-17T21:55:30.189Z,100651.03
2022-08-17T21:58:13.871Z,100639.91
2022-08-17T22:00:44.457Z,100647.59
2022-08-17T22:03:24.726Z,100661.03
2022-08-17T22:05:52.044Z,100672.53
2022-08-17T22:08:24.024Z,100676.38
2022-08-17T22:11:00.608Z,100686.16
2022-08-17T22:13:29.580Z,100694.56
2022-08-17T22:16:15.390Z,100693.84
2022-08-17T22:18:57.899Z,100693.41
2022-08-17T22:21:25.490Z,100699.81
2022-08-17T22:24:05.331Z,100702.47
2022-08-17T22:27:00.163Z,100702.63
2022-08-17T22:29:57.030Z,100703.69
2022-08-17T22:32:37.281Z,100707.47
2022-08-17T22:35:29.054Z,100712.88
2022-08-17T22:37:57.496Z,100712.47
2022-08-17T22:40:32.959Z,100711.44
2022-08-17T22:43:03.493Z,100720.44
2022-08-17T22:45:31.198Z,100722.09
2022-08-17T22:48:00.294Z,100712.81
2022-08-17T22:50:30.320Z,100718.38
2022-08-17T22:53:19.203Z,100732.78
2022-08-17T22:56:15.299Z,100730.88
2022-08-17T22:59:15.823Z,100738.88
2022-08-17T23:01:45.400Z,100728.19
2022-08-17T23:04:31.826Z,100740.81
2022-08-17T23:06:59.071Z,100738.50
2022-08-17T23:09:26.419Z,100725.78
2022-08-17T23:11:58.992Z,100722.72
2022-08-17T23:14:31.732Z,100726.59
2022-08-17T23:17:02.010Z,100720.75
2022-08-17T23:19:31.840Z,100724.03
2022-08-17T23:21:59.848Z,100723.31
2022-08-17T23:24:33.074Z,100713.84
2022-08-17T23:27:00.357Z,100716.72
2022-08-17T23:29:29.384Z,100719.47
2022-08-17T23:31:59.706Z,100714.22
2022-08-17T23:34:28.029Z,100711.34
2022-08-17T23:36:55.544Z,100716.31
2022-08-17T23:39:27.272Z,100717.50
2022-08-17T23:41:57.891Z,100710.22
2022-08-17T23:44:25.848Z,100717.28
2022-08-17T23:46:53.605Z,100712.53
2022-08-17T23:49:20.886Z,100717.88
2022-08-17T23:51:48.570Z,100708.78
2022-08-17T23:54:35.629Z,100714.59
2022-08-17T23:57:04.769Z,100718.53
2022-08-17T23:59:33.890Z,100713.72
